createdAt,value
2019-05-01T00:00:36.791Z,26.03
2019-05-01T00:03:27.048Z,26.67
2019-05-01T00:05:58.575Z,27.50
2019-05-01T00:08:28.158Z,26.57
2019-05-01T00:10:57.670Z,26.30
2019-05-01T00:13:27.171Z,27.00
2019-05-01T00:15:56.635Z,25.17
2019-05-01T00:18:26.221Z,26.03
2019-05-01T00:20:55.812Z,26.03
2019-05-01T00:23:25.297Z,27.93
2019-05-01T00:25:54.792Z,27.33
2019-05-01T00:28:24.288Z,28.63
2019-05-01T00:30:53.773Z,28.73
2019-05-01T00:33:23.263Z,30.03
2019-05-01T00:35:52.771Z,29.37
2019-05-01T00:38:22.273Z,30.43
2019-05-01T00:40:51.758Z,30.77
2019-05-01T00:43:21.429Z,31.27
2019-05-01T00:45:50.908Z,31.33
2019-05-01T00:48:20.369Z,30.07
2019-05-01T00:50:49.877Z,31.40
2019-05-01T00:53:19.392Z,30.73
2019-05-01T00:56:07.801Z,29.20
2019-05-01T00:58:54.186Z,30.57
2019-05-01T01:01:37.892Z,30.33
2019-05-01T01:04:08.096Z,31.30
2019-05-01T01:06:37.611Z,30.70
2019-05-01T01:09:08.179Z,30.33
2019-05-01T01:11:37.655Z,31.77
2019-05-01T01:14:07.741Z,31.53
2019-05-01T01:16:37.205Z,29.80
2019-05-01T01:19:06.799Z,31.03
2019-05-01T01:21:36.308Z,29.63
2019-05-01T01:24:05.818Z,31.07
2019-05-01T01:26:35.396Z,30.07
2019-05-01T01:29:04.284Z,30.77
2019-05-01T01:31:33.773Z,30.17
2019-05-01T01:34:03.286Z,30.30
2019-05-01T01:36:32.775Z,30.13
2019-05-01T01:39:02.344Z,30.07
2019-05-01T01:41:32.055Z,31.07
2019-05-01T01:44:16.717Z,31.70
2019-05-01T01:46:46.494Z,31.37
2019-05-01T01:49:16.591Z,31.73
2019-05-01T01:51:46.040Z,31.67
2019-05-01T01:54:15.639Z,29.97
2019-05-01T01:56:45.425Z,30.07
2019-05-01T01:59:15.077Z,28.00
2019-05-01T02:02:06.253Z,28.27
2019-05-01T02:04:49.040Z,29.77
2019-05-01T02:07:18.636Z,30.03
2019-05-01T02:09:48.093Z,28.33
2019-05-01T02:12:18.068Z,29.77
2019-05-01T02:14:47.543Z,28.80
2019-05-01T02:17:17.031Z,30.07
2019-05-01T02:19:46.515Z,30.93
2019-05-01T02:22:15.999Z,29.40
2019-05-01T02:24:45.482Z,28.60
2019-05-01T02:27:20.400Z,29.30
2019-05-01T02:29:53.293Z,28.63
2019-05-01T02:32:25.850Z,27.70
2019-05-01T02:34:56.979Z,28.40
2019-05-01T02:37:29.075Z,28.33
2019-05-01T02:40:01.374Z,27.40
2019-05-01T02:42:33.069Z,26.83
2019-05-01T02:45:04.941Z,27.77
2019-05-01T02:47:37.593Z,27.73
2019-05-01T02:50:09.311Z,27.73
2019-05-01T02:52:41.446Z,28.43
2019-05-01T02:55:34.342Z,28.40
2019-05-01T02:58:04.486Z,27.90
2019-05-01T03:00:34.790Z,27.47
2019-05-01T03:03:04.362Z,26.80
2019-05-01T03:05:33.964Z,27.00
2019-05-01T03:08:04.157Z,28.20
2019-05-01T03:10:33.668Z,27.53
2019-05-01T03:13:04.130Z,27.23
2019-05-01T03:15:35.736Z,27.43
2019-05-01T03:18:26.086Z,26.33
2019-05-01T03:21:10.090Z,27.53
2019-05-01T03:23:44.312Z,26.27
2019-05-01T03:26:14.002Z,26.93
2019-05-01T03:28:43.483Z,26.03
2019-05-01T03:31:13.130Z,26.27
2019-05-01T03:33:42.747Z,25.93
2019-05-01T03:36:12.737Z,25.97
2019-05-01T03:38:42.899Z,25.80
2019-05-01T03:41:12.490Z,25.53
2019-05-01T03:43:42.250Z,27.00
2019-05-01T03:46:11.934Z,28.73
2019-05-01T03:48:41.899Z,26.87
2019-05-01T03:51:11.862Z,27.63
2019-05-01T03:53:42.446Z,25.90
2019-05-01T03:56:12.336Z,26.53
2019-05-01T03:58:41.937Z,27.70
2019-05-01T04:01:18.319Z,26.53
2019-05-01T04:03:53.323Z,25.90
2019-05-01T04:06:22.840Z,26.20
2019-05-01T04:08:52.911Z,27.50
2019-05-01T04:11:22.996Z,27.13
2019-05-01T04:13:52.593Z,27.20
2019-05-01T04:16:23.004Z,26.73
2019-05-01T04:18:52.498Z,27.50
2019-05-01T04:21:24.250Z,26.63
2019-05-01T04:23:54.314Z,26.97
2019-05-01T04:26:23.785Z,28.73
2019-05-01T04:29:15.992Z,27.03
2019-05-01T04:31:50.454Z,28.20
2019-05-01T04:34:25.572Z,27.97
2019-05-01T04:36:57.332Z,28.47
2019-05-01T04:39:26.822Z,28.27
2019-05-01T04:41:56.583Z,28.67
2019-05-01T04:44:26.073Z,28.37
2019-05-01T04:46:55.781Z,30.07
2019-05-01T04:49:25.468Z,28.97
2019-05-01T04:51:55.177Z,28.67
2019-05-01T04:54:24.820Z,28.73
2019-05-01T04:56:54.318Z,28.30
2019-05-01T04:59:23.912Z,28.33
2019-05-01T05:01:57.564Z,28.80
2019-05-01T05:04:27.991Z,27.43
2019-05-01T05:06:57.842Z,29.03
2019-05-01T05:09:43.747Z,29.03
2019-05-01T05:12:48.296Z,28.27
2019-05-01T05:15:46.111Z,29.10
2019-05-01T05:18:15.746Z,30.13
2019-05-01T05:20:45.221Z,28.37
2019-05-01T05:23:14.726Z,27.50
2019-05-01T05:25:44.385Z,29.10
2019-05-01T05:28:14.083Z,28.93
2019-05-01T05:30:45.908Z,28.73
2019-05-01T05:33:18.975Z,27.20
2019-05-01T05:35:50.458Z,28.13
2019-05-01T05:38:46.391Z,26.90
2019-05-01T05:41:15.987Z,28.43
2019-05-01T05:43:45.617Z,29.10
2019-05-01T05:46:15.722Z,29.33
2019-05-01T05:48:45.204Z,28.33
2019-05-01T05:51:34.056Z,29.40
2019-05-01T05:54:31.969Z,28.03
2019-05-01T05:57:09.727Z,28.00
2019-05-01T05:59:44.460Z,26.47
2019-05-01T06:02:35.252Z,25.83
2019-05-01T06:05:23.249Z,27.53
2019-05-01T06:08:18.782Z,26.50
2019-05-01T06:11:09.580Z,26.77
2019-05-01T06:13:58.961Z,27.20
2019-05-01T06:16:52.063Z,26.10
2019-05-01T06:19:39.022Z,24.57
2019-05-01T06:22:28.164Z,25.13
2019-05-01T06:25:06.080Z,24.53
2019-05-01T06:27:36.977Z,24.43
2019-05-01T06:30:10.889Z,21.37
2019-05-01T06:32:39.904Z,24.13
2019-05-01T06:35:09.501Z,23.90
2019-05-01T06:38:01.985Z,22.00
2019-05-01T06:40:39.076Z,21.23
2019-05-01T06:43:15.705Z,20.60
2019-05-01T06:45:51.618Z,21.73
2019-05-01T06:48:23.007Z,19.97
2019-05-01T06:50:56.332Z,20.10
2019-05-01T06:53:26.782Z,20.17
2019-05-01T06:55:56.364Z,19.40
2019-05-01T06:58:26.132Z,18.77
2019-05-01T07:00:55.707Z,19.73
2019-05-01T07:03:25.520Z,20.37
2019-05-01T07:05:56.301Z,19.83
2019-05-01T07:08:29.469Z,21.13
2019-05-01T07:10:57.454Z,20.27
2019-05-01T07:13:27.051Z,19.07
2019-05-01T07:15:58.357Z,19.67
2019-05-01T07:18:29.210Z,20.90
2019-05-01T07:20:59.224Z,20.40
2019-05-01T07:23:28.730Z,20.83
2019-05-01T07:25:58.216Z,20.63
2019-05-01T07:28:34.059Z,21.50
2019-05-01T07:31:06.945Z,20.37
2019-05-01T07:33:37.436Z,20.70
2019-05-01T07:36:14.974Z,22.07
2019-05-01T07:38:40.545Z,21.07
2019-05-01T07:41:12.378Z,21.53
2019-05-01T07:44:00.995Z,21.80
2019-05-01T07:46:54.305Z,22.60
2019-05-01T07:49:28.321Z,22.93
2019-05-01T07:51:57.927Z,21.50
2019-05-01T07:54:27.594Z,22.83
2019-05-01T07:56:58.658Z,23.43
2019-05-01T07:59:28.797Z,23.37
2019-05-01T08:02:01.781Z,25.10
2019-05-01T08:04:38.285Z,24.23
2019-05-01T08:07:02.409Z,26.30
2019-05-01T08:09:31.882Z,25.60
2019-05-01T08:12:01.357Z,25.47
2019-05-01T08:14:30.840Z,27.37
2019-05-01T08:17:00.349Z,26.77
2019-05-01T08:19:39.330Z,26.53
2019-05-01T08:22:11.257Z,25.83
2019-05-01T08:24:40.742Z,28.37
2019-05-01T08:27:20.246Z,28.47
2019-05-01T08:30:12.702Z,28.43
2019-05-01T08:33:05.336Z,26.73
2019-05-01T08:35:36.578Z,27.20
2019-05-01T08:38:06.373Z,28.50
2019-05-01T08:40:37.245Z,28.27
2019-05-01T08:43:07.132Z,27.73
2019-05-01T08:45:58.559Z,26.47
2019-05-01T08:48:42.287Z,25.80
2019-05-01T08:51:11.775Z,25.57
2019-05-01T08:53:41.242Z,24.90
2019-05-01T08:56:10.739Z,24.23
2019-05-01T08:58:40.225Z,24.90
2019-05-01T09:01:10.734Z,25.20
2019-05-01T09:03:40.847Z,24.43
2019-05-01T09:06:10.318Z,25.10
2019-05-01T09:08:39.787Z,24.70
2019-05-01T09:11:09.286Z,23.17
2019-05-01T09:13:38.772Z,23.20
2019-05-01T09:16:08.280Z,23.30
2019-05-01T09:18:37.775Z,22.73
2019-05-01T09:21:10.493Z,21.63
2019-05-01T09:23:39.963Z,22.50
2019-05-01T09:26:31.463Z,21.57
2019-05-01T09:29:04.572Z,22.23
2019-05-01T09:31:35.556Z,21.13
2019-05-01T09:34:07.067Z,21.03
2019-05-01T09:36:37.372Z,20.27
2019-05-01T09:39:08.903Z,21.97
2019-05-01T09:41:39.013Z,20.43
2019-05-01T09:44:10.804Z,21.37
2019-05-01T09:46:40.703Z,21.17
2019-05-01T09:49:14.175Z,22.37
2019-05-01T09:51:49.338Z,22.40
2019-05-01T09:54:42.926Z,23.07
2019-05-01T09:57:13.281Z,22.27
2019-05-01T09:59:42.800Z,23.17
2019-05-01T10:02:13.815Z,23.67
2019-05-01T10:04:43.467Z,23.10
2019-05-01T10:07:13.025Z,24.03
2019-05-01T10:09:42.511Z,23.93
2019-05-01T10:12:13.151Z,24.37
2019-05-01T10:14:42.679Z,23.87
2019-05-01T10:17:13.579Z,23.33
2019-05-01T10:19:43.443Z,23.20
2019-05-01T10:22:12.911Z,22.90
2019-05-01T10:24:42.401Z,23.30
2019-05-01T10:27:17.179Z,23.63
2019-05-01T10:30:08.066Z,25.03
2019-05-01T10:32:46.933Z,24.93
2019-05-01T10:35:42.363Z,24.50
2019-05-01T10:38:09.377Z,23.20
2019-05-01T10:40:37.729Z,23.33
2019-05-01T10:43:07.328Z,24.03
2019-05-01T10:45:36.803Z,25.13
2019-05-01T10:48:06.397Z,23.40
2019-05-01T10:50:35.875Z,23.37
2019-05-01T10:53:05.482Z,24.33
2019-05-01T10:55:34.952Z,24.53
2019-05-01T10:58:04.557Z,25.13
2019-05-01T11:00:35.538Z,24.47
2019-05-01T11:03:05.176Z,24.87
2019-05-01T11:05:34.669Z,24.03
2019-05-01T11:08:04.165Z,23.87
2019-05-01T11:10:33.653Z,24.35
2019-05-01T11:13:03.147Z,24.77
2019-05-01T11:15:32.629Z,23.07
2019-05-01T11:18:02.147Z,24.02
2019-05-01T11:20:31.631Z,22.67
2019-05-01T11:23:01.090Z,24.05
2019-05-01T11:25:31.066Z,23.70
2019-05-01T11:28:00.562Z,24.00
2019-05-01T11:30:30.015Z,22.20
2019-05-01T11:33:07.998Z,23.27
2019-05-01T11:35:55.066Z,22.10
2019-05-01T11:38:43.491Z,21.45
2019-05-01T11:41:18.445Z,21.20
2019-05-01T11:43:47.923Z,21.65
2019-05-01T11:46:17.396Z,20.48
2019-05-01T11:48:46.863Z,20.90
2019-05-01T11:51:16.366Z,21.60
2019-05-01T11:53:45.859Z,21.00
2019-05-01T11:56:15.376Z,20.77
2019-05-01T11:58:44.900Z,19.45
2019-05-01T12:01:16.101Z,21.77
2019-05-01T12:03:45.580Z,19.82
2019-05-01T12:06:22.673Z,21.12
2019-05-01T12:08:46.212Z,21.15
2019-05-01T12:11:17.654Z,20.95
2019-05-01T12:13:47.147Z,21.40
2019-05-01T12:16:22.771Z,21.80
2019-05-01T12:18:52.262Z,22.45
2019-05-01T12:21:21.745Z,21.15
2019-05-01T12:23:51.247Z,22.13
2019-05-01T12:26:20.734Z,20.77
2019-05-01T12:28:50.254Z,22.85
2019-05-01T12:31:19.743Z,22.02
2019-05-01T12:33:49.202Z,22.45
2019-05-01T12:36:18.686Z,21.87
2019-05-01T12:38:48.185Z,21.42
2019-05-01T12:41:22.105Z,22.17
2019-05-01T12:43:51.607Z,20.77
2019-05-01T12:46:42.519Z,23.57
2019-05-01T12:49:12.313Z,22.87
2019-05-01T12:51:43.483Z,22.25
2019-05-01T12:54:22.839Z,23.07
2019-05-01T12:56:55.485Z,22.32
2019-05-01T12:59:25.000Z,23.40
2019-05-01T13:01:54.495Z,22.65
2019-05-01T13:04:23.970Z,22.87
2019-05-01T13:06:56.555Z,21.70
2019-05-01T13:09:26.120Z,21.87
2019-05-01T13:11:55.614Z,22.35
2019-05-01T13:14:25.103Z,21.85
2019-05-01T13:16:54.571Z,21.02
2019-05-01T13:19:24.039Z,20.55
2019-05-01T13:21:53.543Z,21.10
2019-05-01T13:24:23.031Z,21.70
2019-05-01T13:27:16.233Z,20.85
2019-05-01T13:30:07.418Z,21.42
2019-05-01T13:32:44.725Z,21.05
2019-05-01T13:35:14.205Z,20.92
2019-05-01T13:37:43.677Z,21.50
2019-05-01T13:40:13.452Z,18.50
2019-05-01T13:42:42.927Z,18.98
2019-05-01T13:45:13.016Z,20.20
2019-05-01T13:47:42.490Z,20.35
2019-05-01T13:50:12.665Z,20.35
2019-05-01T13:52:42.159Z,20.25
2019-05-01T13:55:12.038Z,18.75
2019-05-01T13:57:41.522Z,20.05
2019-05-01T14:00:12.608Z,19.87
2019-05-01T14:02:42.130Z,19.85
2019-05-01T14:05:11.845Z,18.65
2019-05-01T14:07:41.332Z,20.50
2019-05-01T14:10:10.823Z,19.02
2019-05-01T14:12:40.282Z,18.40
2019-05-01T14:15:09.888Z,19.45
2019-05-01T14:17:39.363Z,18.95
2019-05-01T14:20:34.120Z,19.17
2019-05-01T14:23:31.641Z,19.15
2019-05-01T14:26:04.434Z,19.95
2019-05-01T14:28:34.797Z,18.42
2019-05-01T14:31:04.459Z,17.77
2019-05-01T14:33:34.045Z,18.60
2019-05-01T14:36:03.531Z,19.00
2019-05-01T14:38:33.054Z,19.17
2019-05-01T14:41:02.674Z,19.27
2019-05-01T14:43:32.149Z,19.90
2019-05-01T14:46:01.625Z,19.15
2019-05-01T14:48:31.109Z,19.10
2019-05-01T14:51:00.592Z,18.62
2019-05-01T14:53:30.086Z,19.73
2019-05-01T14:55:59.577Z,19.27
2019-05-01T14:58:29.067Z,19.87
2019-05-01T15:00:58.568Z,18.90
2019-05-01T15:03:28.086Z,18.48
2019-05-01T15:05:57.648Z,17.62
2019-05-01T15:08:27.139Z,17.90
2019-05-01T15:10:56.639Z,18.55
2019-05-01T15:13:35.591Z,18.42
2019-05-01T15:16:11.813Z,18.67
2019-05-01T15:18:54.441Z,18.27
2019-05-01T15:21:23.945Z,17.85
2019-05-01T15:23:54.015Z,17.75
2019-05-01T15:26:23.696Z,19.70
2019-05-01T15:28:53.170Z,17.45
2019-05-01T15:31:22.669Z,18.20
2019-05-01T15:33:52.101Z,19.17
2019-05-01T15:36:21.567Z,18.82
2019-05-01T15:38:51.061Z,18.62
2019-05-01T15:41:39.470Z,19.25
2019-05-01T15:44:34.107Z,19.00
2019-05-01T15:47:03.989Z,17.95
2019-05-01T15:49:33.843Z,19.80
2019-05-01T15:52:03.314Z,18.62
2019-05-01T15:54:32.777Z,18.37
2019-05-01T15:57:02.261Z,19.32
2019-05-01T15:59:31.732Z,18.20
2019-05-01T16:02:01.273Z,18.85
2019-05-01T16:04:30.764Z,18.80
2019-05-01T16:07:00.236Z,18.77
2019-05-01T16:09:29.819Z,20.48
2019-05-01T16:12:18.239Z,20.32
2019-05-01T16:14:49.521Z,19.82
2019-05-01T16:17:19.010Z,19.73
2019-05-01T16:19:48.510Z,18.45
2019-05-01T16:22:18.103Z,19.20
2019-05-01T16:24:47.619Z,20.60
2019-05-01T16:27:17.085Z,19.25
2019-05-01T16:29:46.562Z,18.80
2019-05-01T16:32:16.039Z,19.50
2019-05-01T16:34:45.531Z,20.17
2019-05-01T16:37:15.025Z,19.00
2019-05-01T16:40:03.158Z,20.37
2019-05-01T16:42:41.117Z,20.15
2019-05-01T16:45:10.907Z,19.23
2019-05-01T16:47:40.391Z,19.67
2019-05-01T16:50:10.613Z,19.92
2019-05-01T16:52:41.113Z,19.73
2019-05-01T16:55:11.189Z,19.57
2019-05-01T16:57:40.649Z,18.95
2019-05-01T17:00:11.706Z,19.80
2019-05-01T17:02:51.069Z,19.40
2019-05-01T17:05:42.254Z,19.48
2019-05-01T17:08:36.061Z,19.20
2019-05-01T17:11:01.636Z,20.32
2019-05-01T17:13:31.650Z,19.27
2019-05-01T17:16:01.132Z,19.25
2019-05-01T17:18:30.702Z,19.98
2019-05-01T17:21:00.182Z,20.05
2019-05-01T17:23:29.959Z,20.97
2019-05-01T17:25:59.981Z,19.53
2019-05-01T17:28:29.496Z,19.53
2019-05-01T17:31:01.158Z,20.73
2019-05-01T17:33:30.946Z,19.85
2019-05-01T17:36:00.461Z,19.37
2019-05-01T17:38:29.917Z,20.30
2019-05-01T17:40:59.488Z,20.10
2019-05-01T17:43:28.971Z,20.33
2019-05-01T17:45:58.457Z,20.07
2019-05-01T17:48:28.903Z,19.90
2019-05-01T17:51:00.139Z,21.23
2019-05-01T17:53:30.198Z,21.30
2019-05-01T17:55:59.697Z,21.97
2019-05-01T17:58:29.197Z,20.73
2019-05-01T18:01:27.561Z,21.17
2019-05-01T18:04:12.009Z,21.30
2019-05-01T18:06:46.563Z,21.30
2019-05-01T18:09:15.686Z,21.47
2019-05-01T18:11:47.454Z,21.50
2019-05-01T18:14:16.247Z,20.80
2019-05-01T18:16:45.754Z,20.70
2019-05-01T18:19:16.228Z,21.47
2019-05-01T18:21:51.752Z,20.87
2019-05-01T18:24:41.690Z,21.40
2019-05-01T18:27:30.128Z,21.93
2019-05-01T18:30:02.823Z,21.63
2019-05-01T18:32:47.535Z,20.03
2019-05-01T18:35:16.096Z,21.07
2019-05-01T18:37:51.536Z,19.80
2019-05-01T18:40:25.596Z,18.87
2019-05-01T18:42:55.065Z,21.17
2019-05-01T18:45:50.690Z,20.10
2019-05-01T18:48:20.670Z,19.73
2019-05-01T18:50:54.598Z,21.03
2019-05-01T18:53:21.523Z,19.67
2019-05-01T18:55:51.168Z,20.37
2019-05-01T18:58:20.662Z,19.73
2019-05-01T19:00:50.146Z,20.10
2019-05-01T19:03:22.316Z,19.73
2019-05-01T19:05:50.734Z,19.70
2019-05-01T19:08:20.229Z,19.93
2019-05-01T19:10:49.798Z,20.20
2019-05-01T19:13:19.419Z,20.70
2019-05-01T19:15:49.005Z,19.80
2019-05-01T19:18:18.463Z,20.27
2019-05-01T19:20:58.867Z,20.43
2019-05-01T19:23:22.275Z,20.53
2019-05-01T19:25:50.438Z,20.50
2019-05-01T19:28:19.907Z,20.57
2019-05-01T19:30:49.491Z,20.30
2019-05-01T19:33:19.078Z,20.53
2019-05-01T19:35:48.593Z,20.13
2019-05-01T19:38:18.177Z,19.77
2019-05-01T19:40:47.655Z,19.10
2019-05-01T19:43:17.141Z,19.03
2019-05-01T19:45:46.705Z,18.00
2019-05-01T19:48:16.224Z,18.20
2019-05-01T19:50:48.349Z,17.07
2019-05-01T19:53:16.919Z,18.37
2019-05-01T19:55:47.339Z,16.90
2019-05-01T19:58:16.835Z,17.30
2019-05-01T20:00:56.067Z,17.37
2019-05-01T20:03:30.249Z,16.83
2019-05-01T20:05:59.624Z,16.20
2019-05-01T20:08:28.376Z,16.40
2019-05-01T20:10:57.877Z,16.93
2019-05-01T20:13:27.340Z,16.77
2019-05-01T20:15:56.864Z,16.37
2019-05-01T20:18:26.371Z,16.87
2019-05-01T20:20:55.853Z,16.23
2019-05-01T20:23:26.063Z,16.20
2019-05-01T20:25:57.320Z,16.13
2019-05-01T20:28:28.415Z,15.47
2019-05-01T20:30:58.185Z,16.60
2019-05-01T20:33:27.664Z,16.10
2019-05-01T20:36:00.571Z,16.87
2019-05-01T20:38:28.847Z,16.43
2019-05-01T20:40:58.418Z,15.23
2019-05-01T20:43:27.899Z,16.37
2019-05-01T20:45:57.489Z,16.93
2019-05-01T20:48:26.955Z,16.20
2019-05-01T20:50:56.438Z,18.00
2019-05-01T20:53:25.931Z,16.47
2019-05-01T20:56:01.484Z,16.87
2019-05-01T20:58:30.959Z,17.07
2019-05-01T21:01:02.981Z,16.20
2019-05-01T21:03:32.782Z,16.27
2019-05-01T21:06:22.148Z,17.50
2019-05-01T21:09:25.646Z,17.27
2019-05-01T21:12:04.989Z,17.00
2019-05-01T21:14:28.433Z,17.47
2019-05-01T21:16:57.921Z,16.83
2019-05-01T21:19:28.725Z,16.97
2019-05-01T21:21:58.545Z,16.23
2019-05-01T21:24:28.036Z,15.83
2019-05-01T21:26:57.529Z,16.47
2019-05-01T21:29:26.998Z,16.03
2019-05-01T21:31:56.451Z,16.63
2019-05-01T21:34:25.914Z,15.40
2019-05-01T21:36:55.380Z,15.53
2019-05-01T21:39:26.962Z,16.00
2019-05-01T21:41:55.948Z,16.23
2019-05-01T21:44:25.419Z,16.67
2019-05-01T21:46:54.927Z,16.07
2019-05-01T21:49:24.428Z,14.67
2019-05-01T21:51:53.900Z,15.87
2019-05-01T21:54:23.408Z,15.37
2019-05-01T21:56:52.868Z,16.03
2019-05-01T21:59:22.383Z,15.83
2019-05-01T22:01:51.882Z,16.03
2019-05-01T22:04:21.352Z,16.00
2019-05-01T22:06:51.890Z,17.30
2019-05-01T22:09:23.525Z,16.53
2019-05-01T22:11:53.043Z,17.47
2019-05-01T22:14:53.709Z,16.53
2019-05-01T22:17:34.307Z,17.63
2019-05-01T22:20:04.985Z,16.87
2019-05-01T22:22:44.030Z,16.57
2019-05-01T22:25:23.871Z,17.63
2019-05-01T22:27:59.377Z,17.83
2019-05-01T22:30:50.833Z,17.30
2019-05-01T22:33:20.417Z,17.83
2019-05-01T22:35:51.901Z,18.13
2019-05-01T22:38:21.482Z,17.03
2019-05-01T22:41:15.970Z,17.27
2019-05-01T22:43:45.458Z,18.17
2019-05-01T22:46:22.816Z,16.93
2019-05-01T22:48:52.291Z,17.27
2019-05-01T22:51:23.821Z,18.00
2019-05-01T22:53:56.326Z,18.27
2019-05-01T22:56:26.447Z,18.37
2019-05-01T22:58:55.929Z,18.73
2019-05-01T23:01:26.568Z,19.17
2019-05-01T23:04:01.523Z,19.83
2019-05-01T23:06:31.045Z,20.43
2019-05-01T23:09:00.506Z,19.67
2019-05-01T23:11:32.219Z,20.13
2019-05-01T23:14:01.700Z,19.47
2019-05-01T23:16:35.754Z,19.80
2019-05-01T23:19:05.258Z,19.93
2019-05-01T23:21:34.737Z,19.47
2019-05-01T23:24:05.090Z,19.70
2019-05-01T23:26:34.566Z,19.80
2019-05-01T23:29:04.133Z,20.57
2019-05-01T23:31:33.725Z,19.60
2019-05-01T23:34:03.195Z,20.77
2019-05-01T23:36:32.689Z,21.03
2019-05-01T23:39:02.156Z,21.80
2019-05-01T23:41:45.159Z,20.43
2019-05-01T23:44:03.595Z,20.23
2019-05-01T23:46:33.895Z,21.37
2019-05-01T23:49:03.384Z,20.13
2019-05-01T23:51:32.874Z,20.83
2019-05-01T23:54:02.350Z,20.23
2019-05-01T23:56:35.011Z,20.33
2019-05-01T23:59:03.043Z,20.03
